createdAt,value
2023-05-06T00:00:19.965Z,25.00
2023-05-06T00:01:19.996Z,25.00
2023-05-06T00:02:20.077Z,25.00
2023-05-06T00:03:20.219Z,0.00
2023-05-06T00:04:20.201Z,0.00
2023-05-06T00:05:20.213Z,0.00
2023-05-06T00:06:20.262Z,0.00
2023-05-06T00:07:20.329Z,0.00
2023-05-06T00:08:20.385Z,0.00
2023-05-06T00:09:20.458Z,0.00
2023-05-06T00:10:20.506Z,1.95
2023-05-06T00:11:20.563Z,18.27
2023-05-06T00:12:20.818Z,25.00
2023-05-06T00:13:20.755Z,25.08
2023-05-06T00:14:20.726Z,25.00
2023-05-06T00:15:20.756Z,24.95
2023-05-06T00:16:20.811Z,26.58
2023-05-06T00:17:20.822Z,25.00
2023-05-06T00:18:20.880Z,25.00
2023-05-06T00:19:20.916Z,25.00
2023-05-06T00:20:20.960Z,25.60
2023-05-06T00:21:21.002Z,26.07
2023-05-06T00:22:21.006Z,25.65
2023-05-06T00:23:21.041Z,25.00
2023-05-06T00:24:21.085Z,26.50
2023-05-06T00:25:21.097Z,26.85
2023-05-06T00:26:21.122Z,25.34
2023-05-06T00:27:21.125Z,25.85
2023-05-06T00:28:21.206Z,25.16
2023-05-06T00:29:21.196Z,27.83
2023-05-06T00:30:21.205Z,26.89
2023-05-06T00:31:21.241Z,25.00
2023-05-06T00:32:21.243Z,30.44
2023-05-06T00:33:21.251Z,25.00
2023-05-06T00:34:21.287Z,25.73
2023-05-06T00:35:21.297Z,27.07
2023-05-06T00:36:21.296Z,25.79
2023-05-06T00:37:21.311Z,27.73
2023-05-06T00:38:21.330Z,26.28
2023-05-06T00:39:21.338Z,27.41
2023-05-06T00:40:21.348Z,28.65
2023-05-06T00:41:21.367Z,29.12
2023-05-06T00:42:21.391Z,27.01
2023-05-06T00:43:21.429Z,26.97
2023-05-06T00:44:21.703Z,27.37
2023-05-06T00:45:21.433Z,26.85
2023-05-06T00:46:21.616Z,28.66
2023-05-06T00:47:21.461Z,27.62
2023-05-06T00:48:21.469Z,28.27
2023-05-06T00:49:21.491Z,27.60
2023-05-06T00:50:21.540Z,27.80
2023-05-06T00:51:21.503Z,26.99
2023-05-06T00:52:21.533Z,25.62
2023-05-06T00:53:21.608Z,29.81
2023-05-06T00:54:21.597Z,27.32
2023-05-06T00:55:21.611Z,28.07
2023-05-06T00:56:21.638Z,25.35
2023-05-06T00:57:21.664Z,25.45
2023-05-06T00:58:21.695Z,25.55
2023-05-06T00:59:21.698Z,26.97
2023-05-06T01:00:21.848Z,25.00
2023-05-06T01:01:21.777Z,26.87
2023-05-06T01:02:22.551Z,26.87
2023-05-06T01:03:22.053Z,27.17
2023-05-06T01:04:22.006Z,27.89
2023-05-06T01:05:22.045Z,26.39
2023-05-06T01:06:24.398Z,27.14
2023-05-06T01:07:22.087Z,29.12
2023-05-06T01:08:22.062Z,29.54
2023-05-06T01:09:22.015Z,27.48
2023-05-06T01:10:22.040Z,29.15
2023-05-06T01:11:22.008Z,25.84
2023-05-06T01:12:21.995Z,26.44
2023-05-06T01:13:22.008Z,25.00
2023-05-06T01:14:21.980Z,27.48
2023-05-06T01:15:21.972Z,28.10
2023-05-06T01:16:22.079Z,28.70
2023-05-06T01:17:21.994Z,30.39
2023-05-06T01:18:21.964Z,28.22
2023-05-06T01:19:21.946Z,25.95
2023-05-06T01:20:21.947Z,29.07
2023-05-06T01:21:21.934Z,25.25
2023-05-06T01:22:21.924Z,28.67
2023-05-06T01:23:21.923Z,25.46
2023-05-06T01:24:21.911Z,25.00
2023-05-06T01:25:21.916Z,27.17
2023-05-06T01:26:21.891Z,26.84
2023-05-06T01:27:21.915Z,28.65
2023-05-06T01:28:21.886Z,27.85
2023-05-06T01:29:21.879Z,27.24
2023-05-06T01:30:21.889Z,27.65
2023-05-06T01:31:21.885Z,29.06
2023-05-06T01:32:22.039Z,28.26
2023-05-06T01:33:21.850Z,26.28
2023-05-06T01:34:21.854Z,28.06
2023-05-06T01:35:21.846Z,29.00
2023-05-06T01:36:21.833Z,28.01
2023-05-06T01:37:21.824Z,26.44
2023-05-06T01:38:21.823Z,25.75
2023-05-06T01:39:21.804Z,28.55
2023-05-06T01:40:21.803Z,27.94
2023-05-06T01:41:21.795Z,25.64
2023-05-06T01:42:21.796Z,26.75
2023-05-06T01:43:21.786Z,28.49
2023-05-06T01:44:21.783Z,29.13
2023-05-06T01:45:21.781Z,26.76
2023-05-06T01:46:21.859Z,25.56
2023-05-06T01:47:21.759Z,26.42
2023-05-06T01:48:21.847Z,27.06
2023-05-06T01:49:21.745Z,31.10
2023-05-06T01:50:21.735Z,29.79
2023-05-06T01:51:21.741Z,28.54
2023-05-06T01:52:21.730Z,28.47
2023-05-06T01:53:21.721Z,29.99
2023-05-06T01:54:21.757Z,29.18
2023-05-06T01:55:21.705Z,25.45
2023-05-06T01:56:21.703Z,25.93
2023-05-06T01:57:21.705Z,29.81
2023-05-06T01:58:21.697Z,25.79
2023-05-06T01:59:21.676Z,29.27
2023-05-06T02:00:21.685Z,28.03
2023-05-06T02:01:21.701Z,30.69
2023-05-06T02:02:21.680Z,28.90
2023-05-06T02:03:21.754Z,28.23
2023-05-06T02:04:21.745Z,27.38
2023-05-06T02:05:21.684Z,26.32
2023-05-06T02:06:21.715Z,26.35
2023-05-06T02:07:21.691Z,26.34
2023-05-06T02:08:21.705Z,27.08
2023-05-06T02:09:21.688Z,26.95
2023-05-06T02:10:21.696Z,26.19
2023-05-06T02:11:21.681Z,27.72
2023-05-06T02:12:21.688Z,28.25
2023-05-06T02:13:21.722Z,27.40
2023-05-06T02:14:21.705Z,30.95
2023-05-06T02:15:21.757Z,27.32
2023-05-06T02:16:21.827Z,29.47
2023-05-06T02:17:21.817Z,26.59
2023-05-06T02:18:21.805Z,28.43
2023-05-06T02:19:21.792Z,27.04
2023-05-06T02:20:21.827Z,27.56
2023-05-06T02:21:21.805Z,26.07
2023-05-06T02:22:21.805Z,29.97
2023-05-06T02:23:21.811Z,28.06
2023-05-06T02:24:21.803Z,30.23
2023-05-06T02:25:21.800Z,28.21
2023-05-06T02:26:21.809Z,30.51
2023-05-06T02:27:21.809Z,28.54
2023-05-06T02:28:21.816Z,28.06
2023-05-06T02:29:21.816Z,27.24
2023-05-06T02:30:21.806Z,30.90
2023-05-06T02:31:21.819Z,27.73
2023-05-06T02:32:21.873Z,28.12
2023-05-06T02:33:21.916Z,27.33
2023-05-06T02:34:21.924Z,26.71
2023-05-06T02:35:21.971Z,28.28
2023-05-06T02:36:22.161Z,26.96
2023-05-06T02:37:22.025Z,26.63
2023-05-06T02:38:22.031Z,25.90
2023-05-06T02:39:22.031Z,29.32
2023-05-06T02:40:22.036Z,29.20
2023-05-06T02:41:22.045Z,27.58
2023-05-06T02:42:22.059Z,28.60
2023-05-06T02:43:22.035Z,28.54
2023-05-06T02:44:22.040Z,26.60
2023-05-06T02:45:22.046Z,27.63
2023-05-06T02:46:22.120Z,27.03
2023-05-06T02:47:22.076Z,28.16
2023-05-06T02:48:22.052Z,28.34
2023-05-06T02:49:22.049Z,26.97
2023-05-06T02:50:22.044Z,28.51
2023-05-06T02:51:22.037Z,27.48
2023-05-06T02:52:22.131Z,26.78
2023-05-06T02:53:22.101Z,25.88
2023-05-06T02:54:22.040Z,27.60
2023-05-06T02:55:22.066Z,26.70
2023-05-06T02:56:22.066Z,27.64
2023-05-06T02:57:22.060Z,27.22
2023-05-06T02:58:22.061Z,27.81
2023-05-06T02:59:22.076Z,29.16
2023-05-06T03:00:22.072Z,30.58
2023-05-06T03:01:22.103Z,26.03
2023-05-06T03:02:22.081Z,30.37
2023-05-06T03:03:22.073Z,26.31
2023-05-06T03:04:22.070Z,27.26
2023-05-06T03:05:22.083Z,27.15
2023-05-06T03:06:22.068Z,29.94
2023-05-06T03:07:22.078Z,28.97
2023-05-06T03:08:22.244Z,28.95
2023-05-06T03:09:22.216Z,29.46
2023-05-06T03:10:22.187Z,28.50
2023-05-06T03:11:22.200Z,29.48
2023-05-06T03:12:22.241Z,32.02
2023-05-06T03:13:22.331Z,27.89
2023-05-06T03:14:22.254Z,28.41
2023-05-06T03:15:22.248Z,27.30
2023-05-06T03:16:22.276Z,26.84
2023-05-06T03:17:22.232Z,28.03
2023-05-06T03:18:22.233Z,28.32
2023-05-06T03:19:22.234Z,26.01
2023-05-06T03:20:22.237Z,26.60
2023-05-06T03:21:22.380Z,28.75
2023-05-06T03:22:22.341Z,29.84
2023-05-06T03:23:22.344Z,29.59
2023-05-06T03:24:22.499Z,28.68
2023-05-06T03:25:22.374Z,27.90
2023-05-06T03:26:22.379Z,28.30
2023-05-06T03:27:22.366Z,25.17
2023-05-06T03:28:22.372Z,27.12
2023-05-06T03:29:22.373Z,28.37
2023-05-06T03:30:22.398Z,29.53
2023-05-06T03:31:22.434Z,27.95
2023-05-06T03:32:22.368Z,28.57
2023-05-06T03:33:22.380Z,27.93
2023-05-06T03:34:22.357Z,27.49
2023-05-06T03:35:22.400Z,27.47
2023-05-06T03:36:22.430Z,30.65
2023-05-06T03:37:22.451Z,27.53
2023-05-06T03:38:22.468Z,25.36
2023-05-06T03:39:22.460Z,27.02
2023-05-06T03:40:22.524Z,25.22
2023-05-06T03:41:22.457Z,28.55
2023-05-06T03:42:22.475Z,26.58
2023-05-06T03:43:22.468Z,26.25
2023-05-06T03:44:22.476Z,28.08
2023-05-06T03:45:22.471Z,30.35
2023-05-06T03:46:22.540Z,28.88
2023-05-06T03:47:22.482Z,30.43
2023-05-06T03:48:22.481Z,28.23
2023-05-06T03:49:22.482Z,28.55
2023-05-06T03:50:22.484Z,32.37
2023-05-06T03:51:22.491Z,29.00
2023-05-06T03:52:22.488Z,29.25
2023-05-06T03:53:22.515Z,29.83
2023-05-06T03:54:22.496Z,28.83
2023-05-06T03:55:22.506Z,26.94
2023-05-06T03:56:22.616Z,30.04
2023-05-06T03:57:22.518Z,27.34
2023-05-06T03:58:22.509Z,28.32
2023-05-06T03:59:22.521Z,30.93
2023-05-06T04:00:22.554Z,30.41
2023-05-06T04:01:22.590Z,27.78
2023-05-06T04:02:22.814Z,29.94
2023-05-06T04:03:22.741Z,31.33
2023-05-06T04:04:22.682Z,28.75
2023-05-06T04:05:22.700Z,28.17
2023-05-06T04:06:22.689Z,26.26
2023-05-06T04:07:22.727Z,26.20
2023-05-06T04:08:22.694Z,27.68
2023-05-06T04:09:22.702Z,30.05
2023-05-06T04:10:22.765Z,27.93
2023-05-06T04:11:22.783Z,29.72
2023-05-06T04:12:22.817Z,26.26
2023-05-06T04:13:23.183Z,29.28
2023-05-06T04:14:22.813Z,27.54
2023-05-06T04:15:22.812Z,27.72
2023-05-06T04:16:22.933Z,28.86
2023-05-06T04:17:22.895Z,28.78
2023-05-06T04:18:22.931Z,29.35
2023-05-06T04:19:22.938Z,28.35
2023-05-06T04:20:22.949Z,26.05
2023-05-06T04:21:22.938Z,28.26
2023-05-06T04:22:22.928Z,28.19
2023-05-06T04:23:22.933Z,30.24
2023-05-06T04:24:22.926Z,30.65
2023-05-06T04:25:22.952Z,29.14
2023-05-06T04:26:22.964Z,30.40
2023-05-06T04:27:22.972Z,30.02
2023-05-06T04:28:23.143Z,30.61
2023-05-06T04:29:22.986Z,30.33
2023-05-06T04:30:22.992Z,30.12
2023-05-06T04:31:23.007Z,28.04
2023-05-06T04:32:23.036Z,30.70
2023-05-06T04:33:23.033Z,27.14
2023-05-06T04:34:23.053Z,27.04
2023-05-06T04:35:23.036Z,28.88
2023-05-06T04:36:23.077Z,26.81
2023-05-06T04:37:23.101Z,27.99
2023-05-06T04:38:23.115Z,29.43
2023-05-06T04:39:23.133Z,27.15
2023-05-06T04:40:23.135Z,27.67
2023-05-06T04:41:23.145Z,27.85
2023-05-06T04:42:23.170Z,28.38
2023-05-06T04:43:23.180Z,28.86
2023-05-06T04:44:23.188Z,28.02
2023-05-06T04:45:23.159Z,26.99
2023-05-06T04:46:23.397Z,26.95
2023-05-06T04:47:23.211Z,27.05
2023-05-06T04:48:23.208Z,27.37
2023-05-06T04:49:23.303Z,28.48
2023-05-06T04:50:23.226Z,26.81
2023-05-06T04:51:23.253Z,29.64
2023-05-06T04:52:23.223Z,30.13
2023-05-06T04:53:23.245Z,29.76
2023-05-06T04:54:23.216Z,28.63
2023-05-06T04:55:23.251Z,27.40
2023-05-06T04:56:23.229Z,30.26
2023-05-06T04:57:23.225Z,30.22
2023-05-06T04:58:23.233Z,27.53
2023-05-06T04:59:23.250Z,27.74
2023-05-06T05:00:23.374Z,31.32
2023-05-06T05:01:23.287Z,27.85
2023-05-06T05:02:23.291Z,28.05
2023-05-06T05:03:23.408Z,29.44
2023-05-06T05:04:23.276Z,27.21
2023-05-06T05:05:23.256Z,28.27
2023-05-06T05:06:23.261Z,28.02
2023-05-06T05:07:23.268Z,27.57
2023-05-06T05:08:23.344Z,28.05
2023-05-06T05:09:23.280Z,29.11
2023-05-06T05:10:23.302Z,27.54
2023-05-06T05:11:23.269Z,30.90
2023-05-06T05:12:23.308Z,29.30
2023-05-06T05:13:23.274Z,27.69
2023-05-06T05:14:23.265Z,27.11
2023-05-06T05:15:23.292Z,30.08
2023-05-06T05:16:23.388Z,28.29
2023-05-06T05:17:23.282Z,29.29
2023-05-06T05:18:23.313Z,28.35
2023-05-06T05:19:23.258Z,28.30
2023-05-06T05:20:23.255Z,29.06
2023-05-06T05:21:23.259Z,27.82
2023-05-06T05:22:23.270Z,27.72
2023-05-06T05:23:23.302Z,27.74
2023-05-06T05:24:23.286Z,27.66
2023-05-06T05:25:23.315Z,29.76
2023-05-06T05:26:23.321Z,28.47
2023-05-06T05:27:23.302Z,29.70
2023-05-06T05:28:23.307Z,26.54
2023-05-06T05:29:23.301Z,25.39
2023-05-06T05:30:23.327Z,29.10
2023-05-06T05:31:23.335Z,27.85
2023-05-06T05:32:23.441Z,30.83
2023-05-06T05:33:23.353Z,28.72
2023-05-06T05:34:23.301Z,28.06
2023-05-06T05:35:23.356Z,25.51
2023-05-06T05:36:23.293Z,27.23
2023-05-06T05:37:23.285Z,25.39
2023-05-06T05:38:23.292Z,27.50
2023-05-06T05:39:23.305Z,25.00
2023-05-06T05:40:23.331Z,26.98
2023-05-06T05:41:23.300Z,28.76
2023-05-06T05:42:23.315Z,29.20
2023-05-06T05:43:23.329Z,27.60
2023-05-06T05:44:23.324Z,29.82
2023-05-06T05:45:23.389Z,27.39
2023-05-06T05:46:23.439Z,27.61
2023-05-06T05:47:23.428Z,26.18
2023-05-06T05:48:23.505Z,25.00
2023-05-06T05:49:23.371Z,33.15
2023-05-06T05:50:23.400Z,27.27
2023-05-06T05:51:23.373Z,26.14
2023-05-06T05:52:23.373Z,25.77
2023-05-06T05:53:23.436Z,28.54
2023-05-06T05:54:23.380Z,30.39
2023-05-06T05:55:23.382Z,28.38
2023-05-06T05:56:23.417Z,33.68
2023-05-06T05:57:23.397Z,27.61
2023-05-06T05:58:23.425Z,29.34
2023-05-06T05:59:23.390Z,25.00
2023-05-06T06:00:23.416Z,27.73
2023-05-06T06:01:23.421Z,25.00
2023-05-06T06:02:23.504Z,28.10
2023-05-06T06:03:23.545Z,29.36
2023-05-06T06:04:23.627Z,30.91
2023-05-06T06:05:23.460Z,35.48
2023-05-06T06:06:23.445Z,28.82
2023-05-06T06:07:23.457Z,31.60
2023-05-06T06:08:23.470Z,26.52
2023-05-06T06:09:23.496Z,28.48
2023-05-06T06:10:23.584Z,31.53
2023-05-06T06:11:23.516Z,35.72
2023-05-06T06:12:23.605Z,45.50
2023-05-06T06:13:24.181Z,53.64
2023-05-06T06:14:23.576Z,58.77
2023-05-06T06:15:23.621Z,49.64
2023-05-06T06:16:23.711Z,61.40
2023-05-06T06:17:23.698Z,68.84
2023-05-06T06:18:24.211Z,67.95
2023-05-06T06:19:23.694Z,59.32
2023-05-06T06:20:23.937Z,62.87
2023-05-06T06:21:23.794Z,65.72
2023-05-06T06:22:23.847Z,74.68
2023-05-06T06:23:23.906Z,72.95
2023-05-06T06:24:23.952Z,66.44
2023-05-06T06:25:24.051Z,69.77
2023-05-06T06:26:24.054Z,68.91
2023-05-06T06:27:24.270Z,69.26
2023-05-06T06:28:24.141Z,66.63
2023-05-06T06:29:24.169Z,65.39
2023-05-06T06:30:24.250Z,62.50
2023-05-06T06:31:24.263Z,52.47
2023-05-06T06:32:24.245Z,46.88
2023-05-06T06:33:24.258Z,51.20
2023-05-06T06:34:24.321Z,51.13
2023-05-06T06:35:24.346Z,43.03
2023-05-06T06:36:24.486Z,40.45
2023-05-06T06:37:24.377Z,44.31
2023-05-06T06:38:24.448Z,43.70
2023-05-06T06:39:24.451Z,43.16
2023-05-06T06:40:24.479Z,35.78
2023-05-06T06:41:24.537Z,38.19
2023-05-06T06:42:24.548Z,40.45
2023-05-06T06:43:24.559Z,38.28
2023-05-06T06:44:24.570Z,39.77
2023-05-06T06:45:24.586Z,35.92
2023-05-06T06:46:24.671Z,36.83
2023-05-06T06:47:24.644Z,37.97
2023-05-06T06:48:24.625Z,37.40
2023-05-06T06:49:24.631Z,37.88
2023-05-06T06:50:24.652Z,36.24
2023-05-06T06:51:24.645Z,41.67
2023-05-06T06:52:24.800Z,29.97
2023-05-06T06:53:24.708Z,37.23
2023-05-06T06:54:24.692Z,29.21
2023-05-06T06:55:24.756Z,26.91
2023-05-06T06:56:24.765Z,30.93
2023-05-06T06:57:24.775Z,37.52
2023-05-06T06:58:24.804Z,41.43
2023-05-06T06:59:24.844Z,42.59
2023-05-06T07:00:24.889Z,54.83
2023-05-06T07:01:24.984Z,61.80
2023-05-06T07:02:25.021Z,66.40
2023-05-06T07:03:25.063Z,73.72
2023-05-06T07:04:25.201Z,81.59
2023-05-06T07:05:25.146Z,84.26
2023-05-06T07:06:25.172Z,84.42
2023-05-06T07:07:25.199Z,90.30
2023-05-06T07:08:25.249Z,88.11
2023-05-06T07:09:25.217Z,91.16
2023-05-06T07:10:25.265Z,94.45
2023-05-06T07:11:25.328Z,96.03
2023-05-06T07:12:25.378Z,95.59
2023-05-06T07:13:25.468Z,105.23
2023-05-06T07:14:25.484Z,105.76
2023-05-06T07:15:25.552Z,106.36
2023-05-06T07:16:25.566Z,109.28
2023-05-06T07:17:25.637Z,108.64
2023-05-06T07:18:25.549Z,111.76
2023-05-06T07:19:25.550Z,110.98
2023-05-06T07:20:25.722Z,108.84
2023-05-06T07:21:25.547Z,111.60
2023-05-06T07:22:25.551Z,112.12
2023-05-06T07:23:25.591Z,111.14
2023-05-06T07:24:25.765Z,106.80
2023-05-06T07:25:25.563Z,110.21
2023-05-06T07:26:25.585Z,112.04
2023-05-06T07:27:25.571Z,108.81
2023-05-06T07:28:25.594Z,109.94
2023-05-06T07:29:25.561Z,109.81
2023-05-06T07:30:25.635Z,112.07
2023-05-06T07:31:25.601Z,111.03
2023-05-06T07:32:25.591Z,113.10
2023-05-06T07:33:25.646Z,111.77
2023-05-06T07:34:25.610Z,113.00
2023-05-06T07:35:25.659Z,110.67
2023-05-06T07:36:25.674Z,104.98
2023-05-06T07:37:25.682Z,101.75
2023-05-06T07:38:25.673Z,103.00
2023-05-06T07:39:25.708Z,104.19
2023-05-06T07:40:25.727Z,105.30
2023-05-06T07:41:25.720Z,107.40
2023-05-06T07:42:25.753Z,103.66
2023-05-06T07:43:25.723Z,106.16
2023-05-06T07:44:25.699Z,104.75
2023-05-06T07:45:25.703Z,103.58
2023-05-06T07:46:25.809Z,102.90
2023-05-06T07:47:25.858Z,105.87
2023-05-06T07:48:25.832Z,104.11
2023-05-06T07:49:25.733Z,105.22
2023-05-06T07:50:25.757Z,102.59
2023-05-06T07:51:25.784Z,105.69
2023-05-06T07:52:25.846Z,102.21
2023-05-06T07:53:25.873Z,102.10
2023-05-06T07:54:25.906Z,101.20
2023-05-06T07:55:25.937Z,98.65
2023-05-06T07:56:26.030Z,99.56
2023-05-06T07:57:26.078Z,97.25
2023-05-06T07:58:26.115Z,99.93
2023-05-06T07:59:26.160Z,101.72
2023-05-06T08:00:26.244Z,100.23
2023-05-06T08:01:26.268Z,96.68
2023-05-06T08:02:26.444Z,98.44
2023-05-06T08:03:26.702Z,100.49
2023-05-06T08:04:26.502Z,97.94
2023-05-06T08:05:26.486Z,98.48
2023-05-06T08:06:26.529Z,96.00
2023-05-06T08:07:26.555Z,96.85
2023-05-06T08:08:26.681Z,97.38
2023-05-06T08:09:26.667Z,96.91
2023-05-06T08:10:26.748Z,98.87
2023-05-06T08:11:26.793Z,98.84
2023-05-06T08:12:26.877Z,99.92
2023-05-06T08:13:26.916Z,98.84
2023-05-06T08:14:26.987Z,99.21
2023-05-06T08:15:27.105Z,101.62
2023-05-06T08:16:27.172Z,102.36
2023-05-06T08:17:27.168Z,95.70
2023-05-06T08:18:27.283Z,96.40
2023-05-06T08:19:27.285Z,98.31
2023-05-06T08:20:27.334Z,97.28
2023-05-06T08:21:27.370Z,96.21
2023-05-06T08:22:27.436Z,96.43
2023-05-06T08:23:27.486Z,94.48
2023-05-06T08:24:27.546Z,115.98
2023-05-06T08:25:27.600Z,110.61
2023-05-06T08:26:27.640Z,105.85
2023-05-06T08:27:27.693Z,99.17
2023-05-06T08:28:27.832Z,96.46
2023-05-06T08:29:27.811Z,93.38
2023-05-06T08:30:27.860Z,91.10
2023-05-06T08:31:27.944Z,88.45
2023-05-06T08:32:28.000Z,86.54
2023-05-06T08:33:28.009Z,87.93
2023-05-06T08:34:28.069Z,87.66
2023-05-06T08:35:28.155Z,84.37
2023-05-06T08:36:28.194Z,86.10
2023-05-06T08:37:28.252Z,80.57
2023-05-06T08:38:28.296Z,73.32
2023-05-06T08:39:28.336Z,73.06
2023-05-06T08:40:28.386Z,71.58
2023-05-06T08:41:28.418Z,76.44
2023-05-06T08:42:28.473Z,77.13
2023-05-06T08:43:28.501Z,76.17
2023-05-06T08:44:28.696Z,82.02
2023-05-06T08:45:29.621Z,74.90
2023-05-06T08:46:28.622Z,74.67
2023-05-06T08:47:28.674Z,82.65
2023-05-06T08:48:28.747Z,92.72
2023-05-06T08:49:28.776Z,94.26
2023-05-06T08:50:28.809Z,94.64
2023-05-06T08:51:28.877Z,89.99
2023-05-06T08:52:28.941Z,92.84
2023-05-06T08:53:29.034Z,95.10
2023-05-06T08:54:29.073Z,96.72
2023-05-06T08:55:29.134Z,99.75
2023-05-06T08:56:29.188Z,102.81
2023-05-06T08:57:29.246Z,103.12
2023-05-06T08:58:29.304Z,106.30
2023-05-06T08:59:29.356Z,110.31
2023-05-06T09:00:29.559Z,111.91
2023-05-06T09:01:29.497Z,113.10
2023-05-06T09:02:29.600Z,117.28
2023-05-06T09:03:29.625Z,120.04
2023-05-06T09:04:29.587Z,121.73
2023-05-06T09:05:29.633Z,123.18
2023-05-06T09:06:29.682Z,125.02
2023-05-06T09:07:29.733Z,129.05
2023-05-06T09:08:29.780Z,128.78
2023-05-06T09:09:29.846Z,127.31
2023-05-06T09:10:29.881Z,128.05
2023-05-06T09:11:29.904Z,131.80
2023-05-06T09:12:29.950Z,129.46
2023-05-06T09:13:30.011Z,130.45
2023-05-06T09:14:30.045Z,132.17
2023-05-06T09:15:30.087Z,130.03
2023-05-06T09:16:30.271Z,128.12
2023-05-06T09:17:30.182Z,130.03
2023-05-06T09:18:30.184Z,129.50
2023-05-06T09:19:30.227Z,132.63
2023-05-06T09:20:30.220Z,128.92
2023-05-06T09:21:30.256Z,129.68
2023-05-06T09:22:30.283Z,131.56
2023-05-06T09:23:30.318Z,133.32
2023-05-06T09:24:30.351Z,134.72
2023-05-06T09:25:30.400Z,137.77
2023-05-06T09:26:30.436Z,141.91
2023-05-06T09:27:30.472Z,140.58
2023-05-06T09:28:30.518Z,143.45
2023-05-06T09:29:30.556Z,141.88
2023-05-06T09:30:30.598Z,143.38
2023-05-06T09:31:30.684Z,149.99
2023-05-06T09:32:30.760Z,151.55
2023-05-06T09:33:30.647Z,153.18
2023-05-06T09:34:30.678Z,153.76
2023-05-06T09:35:30.720Z,156.14
2023-05-06T09:36:30.754Z,156.16
2023-05-06T09:37:30.806Z,159.62
2023-05-06T09:38:30.808Z,157.79
2023-05-06T09:39:30.816Z,163.88
2023-05-06T09:40:30.812Z,164.60
2023-05-06T09:41:30.829Z,167.05
2023-05-06T09:42:30.831Z,168.39
2023-05-06T09:43:30.855Z,171.24
2023-05-06T09:44:30.890Z,170.48
2023-05-06T09:45:30.898Z,175.76
2023-05-06T09:46:30.956Z,174.15
2023-05-06T09:47:30.941Z,177.17
2023-05-06T09:48:31.035Z,180.59
2023-05-06T09:49:30.960Z,180.14
2023-05-06T09:50:31.016Z,182.86
2023-05-06T09:51:31.079Z,184.68
2023-05-06T09:52:31.100Z,185.23
2023-05-06T09:53:31.038Z,184.25
2023-05-06T09:54:31.059Z,186.16
2023-05-06T09:55:31.107Z,190.20
2023-05-06T09:56:31.091Z,191.95
2023-05-06T09:57:31.103Z,189.02
2023-05-06T09:58:31.110Z,190.40
2023-05-06T09:59:31.134Z,194.04
2023-05-06T10:00:31.161Z,195.33
2023-05-06T10:01:36.921Z,194.73
2023-05-06T10:02:31.307Z,195.24
2023-05-06T10:03:31.252Z,196.54
2023-05-06T10:04:31.424Z,198.94
2023-05-06T10:05:31.314Z,202.30
2023-05-06T10:06:31.142Z,207.16
2023-05-06T10:07:31.147Z,209.24
2023-05-06T10:08:31.129Z,210.22
2023-05-06T10:09:31.133Z,210.08
2023-05-06T10:10:31.155Z,210.59
2023-05-06T10:11:31.108Z,213.91
2023-05-06T10:12:31.102Z,215.60
2023-05-06T10:13:31.101Z,216.43
2023-05-06T10:14:31.098Z,218.00
2023-05-06T10:15:31.087Z,217.14
2023-05-06T10:16:31.153Z,220.08
2023-05-06T10:17:31.070Z,222.17
2023-05-06T10:18:31.068Z,222.02
2023-05-06T10:19:31.054Z,221.61
2023-05-06T10:20:31.396Z,222.27
2023-05-06T10:21:31.051Z,225.13
2023-05-06T10:22:31.056Z,223.95
2023-05-06T10:23:31.030Z,220.87
2023-05-06T10:24:31.027Z,223.13
2023-05-06T10:25:31.022Z,224.06
2023-05-06T10:26:31.021Z,222.39
2023-05-06T10:27:31.010Z,224.03
2023-05-06T10:28:31.823Z,222.15
2023-05-06T10:29:30.995Z,222.73
2023-05-06T10:30:30.974Z,223.12
2023-05-06T10:31:30.997Z,222.80
2023-05-06T10:32:30.989Z,222.59
2023-05-06T10:33:30.952Z,222.04
2023-05-06T10:34:30.938Z,219.85
2023-05-06T10:35:30.935Z,220.85
2023-05-06T10:36:31.082Z,218.70
2023-05-06T10:37:30.923Z,219.34
2023-05-06T10:38:30.920Z,219.84
2023-05-06T10:39:30.919Z,216.05
2023-05-06T10:40:30.893Z,219.08
2023-05-06T10:41:30.899Z,216.55
2023-05-06T10:42:30.884Z,215.53
2023-05-06T10:43:30.875Z,217.84
2023-05-06T10:44:30.938Z,215.94
2023-05-06T10:45:30.914Z,212.02
2023-05-06T10:46:30.975Z,213.39
2023-05-06T10:47:30.881Z,214.92
2023-05-06T10:48:30.853Z,212.15
2023-05-06T10:49:30.836Z,215.09
2023-05-06T10:50:30.826Z,211.52
2023-05-06T10:51:30.822Z,210.90
2023-05-06T10:52:30.969Z,211.26
2023-05-06T10:53:30.808Z,209.46
2023-05-06T10:54:30.802Z,207.46
2023-05-06T10:55:30.780Z,206.20
2023-05-06T10:56:30.802Z,203.47
2023-05-06T10:57:30.822Z,205.01
2023-05-06T10:58:30.850Z,203.44
2023-05-06T10:59:30.888Z,203.67
2023-05-06T11:00:30.916Z,205.75
2023-05-06T11:01:31.061Z,203.94
2023-05-06T11:02:31.055Z,204.00
2023-05-06T11:03:31.116Z,202.97
2023-05-06T11:04:31.094Z,199.77
2023-05-06T11:05:31.094Z,198.93
2023-05-06T11:06:31.145Z,199.22
2023-05-06T11:07:31.180Z,199.77
2023-05-06T11:08:31.309Z,196.41
2023-05-06T11:09:31.259Z,199.37
2023-05-06T11:10:31.302Z,196.46
2023-05-06T11:11:31.334Z,198.39
2023-05-06T11:12:31.366Z,197.77
2023-05-06T11:13:31.503Z,194.58
2023-05-06T11:14:31.444Z,197.29
2023-05-06T11:15:31.490Z,196.47
2023-05-06T11:16:31.556Z,194.95
2023-05-06T11:17:31.602Z,193.02
2023-05-06T11:18:31.621Z,194.36
2023-05-06T11:19:31.674Z,196.53
2023-05-06T11:20:31.727Z,196.24
2023-05-06T11:21:31.782Z,193.99
2023-05-06T11:22:31.817Z,193.89
2023-05-06T11:23:31.842Z,192.01
2023-05-06T11:24:32.004Z,193.08
2023-05-06T11:25:31.900Z,192.51
2023-05-06T11:26:31.958Z,193.50
2023-05-06T11:27:31.998Z,192.29
2023-05-06T11:28:32.066Z,195.40
2023-05-06T11:29:32.087Z,190.97
2023-05-06T11:30:32.134Z,193.61
2023-05-06T11:31:32.269Z,190.63
2023-05-06T11:32:32.216Z,190.71
2023-05-06T11:33:32.243Z,189.92
2023-05-06T11:34:32.293Z,192.01
2023-05-06T11:35:32.343Z,192.38
2023-05-06T11:36:32.374Z,191.89
2023-05-06T11:37:32.433Z,192.27
2023-05-06T11:38:32.479Z,193.36
2023-05-06T11:39:36.530Z,193.01
2023-05-06T11:40:32.594Z,193.41
2023-05-06T11:41:32.496Z,193.98
2023-05-06T11:42:32.485Z,194.03
2023-05-06T11:43:32.474Z,193.63
2023-05-06T11:44:32.471Z,193.75
2023-05-06T11:45:32.465Z,192.33
2023-05-06T11:46:32.806Z,192.50
2023-05-06T11:47:32.489Z,193.26
2023-05-06T11:48:32.455Z,191.34
2023-05-06T11:49:32.744Z,190.83
2023-05-06T11:50:32.436Z,190.84
2023-05-06T11:51:32.427Z,189.91
2023-05-06T11:52:32.416Z,188.91
2023-05-06T11:53:32.416Z,187.84
2023-05-06T11:54:32.398Z,187.30
2023-05-06T11:55:32.390Z,187.78
2023-05-06T11:56:32.506Z,187.98
2023-05-06T11:57:32.382Z,186.87
2023-05-06T11:58:32.409Z,189.52
2023-05-06T11:59:32.407Z,187.66
2023-05-06T12:00:32.359Z,187.48
2023-05-06T12:01:32.348Z,187.22
2023-05-06T12:02:32.410Z,186.97
2023-05-06T12:03:32.652Z,187.70
2023-05-06T12:04:32.393Z,185.79
2023-05-06T12:05:32.354Z,183.09
2023-05-06T12:06:32.375Z,184.95
2023-05-06T12:07:32.440Z,185.91
2023-05-06T12:08:32.471Z,185.11
2023-05-06T12:09:32.536Z,183.96
2023-05-06T12:10:32.552Z,184.18
2023-05-06T12:11:32.596Z,183.44
2023-05-06T12:12:32.763Z,182.11
2023-05-06T12:13:32.650Z,182.13
2023-05-06T12:14:32.730Z,179.47
2023-05-06T12:15:32.746Z,180.48
2023-05-06T12:16:32.822Z,180.01
2023-05-06T12:17:32.841Z,179.34
2023-05-06T12:18:32.869Z,177.45
2023-05-06T12:19:33.012Z,176.90
2023-05-06T12:20:32.936Z,176.89
2023-05-06T12:21:32.981Z,175.70
2023-05-06T12:22:33.001Z,176.79
2023-05-06T12:23:33.076Z,176.06
2023-05-06T12:24:33.055Z,175.69
2023-05-06T12:25:33.057Z,175.99
2023-05-06T12:26:33.081Z,174.37
2023-05-06T12:27:33.152Z,171.79
2023-05-06T12:28:33.165Z,171.63
2023-05-06T12:29:33.155Z,170.35
2023-05-06T12:30:33.204Z,172.51
2023-05-06T12:31:33.249Z,172.39
2023-05-06T12:32:33.344Z,170.36
2023-05-06T12:33:33.303Z,170.81
2023-05-06T12:34:33.363Z,171.42
2023-05-06T12:35:33.401Z,167.08
2023-05-06T12:36:33.459Z,168.82
2023-05-06T12:37:33.498Z,169.28
2023-05-06T12:38:33.540Z,168.45
2023-05-06T12:39:33.595Z,167.26
2023-05-06T12:40:33.649Z,167.74
2023-05-06T12:41:33.694Z,167.03
2023-05-06T12:42:33.727Z,164.57
2023-05-06T12:43:33.765Z,165.88